sensor_id;sensor_type;location;lat;lon;timestamp;temperature;humidity
820;DHT22;392;48.838;2.322;2022-12-18T00:01:22;-1.90;61.70
820;DHT22;392;48.838;2.322;2022-12-18T00:03:52;-2.00;62.20
820;DHT22;392;48.838;2.322;2022-12-18T00:06:22;-2.00;62.70
820;DHT22;392;48.838;2.322;2022-12-18T00:08:51;-1.90;62.60
820;DHT22;392;48.838;2.322;2022-12-18T00:11:22;-1.90;62.50
820;DHT22;392;48.838;2.322;2022-12-18T00:13:50;-1.80;62.50
820;DHT22;392;48.838;2.322;2022-12-18T00:16:21;-1.80;62.20
820;DHT22;392;48.838;2.322;2022-12-18T00:18:50;-1.80;61.70
820;DHT22;392;48.838;2.322;2022-12-18T00:21:20;-1.90;60.90
820;DHT22;392;48.838;2.322;2022-12-18T00:23:48;-1.90;60.60
820;DHT22;392;48.838;2.322;2022-12-18T00:26:21;-1.90;60.20
820;DHT22;392;48.838;2.322;2022-12-18T00:28:53;-1.90;60.00
820;DHT22;392;48.838;2.322;2022-12-18T00:31:23;-1.90;60.30
820;DHT22;392;48.838;2.322;2022-12-18T00:33:54;-1.90;59.50
820;DHT22;392;48.838;2.322;2022-12-18T00:36:23;-1.90;59.20
820;DHT22;392;48.838;2.322;2022-12-18T00:38:53;-1.80;59.20
820;DHT22;392;48.838;2.322;2022-12-18T00:41:22;-1.80;59.10
820;DHT22;392;48.838;2.322;2022-12-18T00:44:10;-1.80;59.00
820;DHT22;392;48.838;2.322;2022-12-18T00:46:39;-1.80;58.80
820;DHT22;392;48.838;2.322;2022-12-18T00:49:07;-1.80;58.80
820;DHT22;392;48.838;2.322;2022-12-18T00:51:35;-1.70;58.70
820;DHT22;392;48.838;2.322;2022-12-18T00:54:02;-1.70;58.50
820;DHT22;392;48.838;2.322;2022-12-18T00:56:32;-1.70;58.50
820;DHT22;392;48.838;2.322;2022-12-18T00:58:59;-1.70;58.50
820;DHT22;392;48.838;2.322;2022-12-18T01:01:26;-1.70;58.30
820;DHT22;392;48.838;2.322;2022-12-18T01:03:54;-1.70;57.50
820;DHT22;392;48.838;2.322;2022-12-18T01:06:21;-1.70;56.70
820;DHT22;392;48.838;2.322;2022-12-18T01:08:49;-1.70;56.40
820;DHT22;392;48.838;2.322;2022-12-18T01:11:18;-1.80;55.80
820;DHT22;392;48.838;2.322;2022-12-18T01:13:47;-1.80;55.90
820;DHT22;392;48.838;2.322;2022-12-18T01:16:16;-1.80;56.40
820;DHT22;392;48.838;2.322;2022-12-18T01:18:44;-1.80;55.70
820;DHT22;392;48.838;2.322;2022-12-18T01:21:13;-1.80;55.60
820;DHT22;392;48.838;2.322;2022-12-18T01:23:42;-1.80;55.70
820;DHT22;392;48.838;2.322;2022-12-18T01:26:14;-1.80;55.50
820;DHT22;392;48.838;2.322;2022-12-18T01:28:43;-1.80;55.60
820;DHT22;392;48.838;2.322;2022-12-18T01:31:18;-1.80;55.40
820;DHT22;392;48.838;2.322;2022-12-18T01:33:48;-1.70;55.50
820;DHT22;392;48.838;2.322;2022-12-18T01:36:18;-1.70;55.50
820;DHT22;392;48.838;2.322;2022-12-18T01:38:47;-1.80;55.30
820;DHT22;392;48.838;2.322;2022-12-18T01:41:17;-1.90;55.50
820;DHT22;392;48.838;2.322;2022-12-18T01:43:49;-1.80;55.70
820;DHT22;392;48.838;2.322;2022-12-18T01:46:21;-1.90;55.60
820;DHT22;392;48.838;2.322;2022-12-18T01:48:51;-1.90;55.80
820;DHT22;392;48.838;2.322;2022-12-18T01:51:20;-2.00;56.00
820;DHT22;392;48.838;2.322;2022-12-18T01:53:48;-1.90;56.10
820;DHT22;392;48.838;2.322;2022-12-18T01:56:18;-1.90;56.00
820;DHT22;392;48.838;2.322;2022-12-18T01:58:54;-1.90;55.60
820;DHT22;392;48.838;2.322;2022-12-18T02:01:26;-1.90;55.40
820;DHT22;392;48.838;2.322;2022-12-18T02:03:54;-1.90;55.60
820;DHT22;392;48.838;2.322;2022-12-18T02:06:26;-1.90;55.30
820;DHT22;392;48.838;2.322;2022-12-18T02:09:05;-1.90;55.20
820;DHT22;392;48.838;2.322;2022-12-18T02:11:42;-1.90;55.20
820;DHT22;392;48.838;2.322;2022-12-18T02:14:21;-1.90;55.00
820;DHT22;392;48.838;2.322;2022-12-18T02:17:01;-1.90;54.90
820;DHT22;392;48.838;2.322;2022-12-18T02:19:44;-1.90;54.90
820;DHT22;392;48.838;2.322;2022-12-18T02:22:24;-1.90;55.60
820;DHT22;392;48.838;2.322;2022-12-18T02:25:04;-1.90;54.60
820;DHT22;392;48.838;2.322;2022-12-18T02:27:41;-2.00;54.80
820;DHT22;392;48.838;2.322;2022-12-18T02:30:11;-2.10;55.00
820;DHT22;392;48.838;2.322;2022-12-18T02:32:43;-2.10;55.50
820;DHT22;392;48.838;2.322;2022-12-18T02:35:17;-2.10;55.90
820;DHT22;392;48.838;2.322;2022-12-18T02:37:51;-2.20;56.20
820;DHT22;392;48.838;2.322;2022-12-18T02:40:22;-2.30;56.90
820;DHT22;392;48.838;2.322;2022-12-18T02:42:52;-2.40;57.90
820;DHT22;392;48.838;2.322;2022-12-18T02:45:20;-2.40;57.90
820;DHT22;392;48.838;2.322;2022-12-18T02:47:49;-2.40;58.20
820;DHT22;392;48.838;2.322;2022-12-18T02:50:20;-2.40;58.50
820;DHT22;392;48.838;2.322;2022-12-18T02:53:02;-2.40;58.70
820;DHT22;392;48.838;2.322;2022-12-18T02:55:44;-2.50;58.50
820;DHT22;392;48.838;2.322;2022-12-18T02:58:23;-2.50;58.90
820;DHT22;392;48.838;2.322;2022-12-18T03:01:03;-2.50;59.00
820;DHT22;392;48.838;2.322;2022-12-18T03:03:38;-2.50;59.40
820;DHT22;392;48.838;2.322;2022-12-18T03:06:10;-2.50;59.50
820;DHT22;392;48.838;2.322;2022-12-18T03:08:43;-2.50;59.60
820;DHT22;392;48.838;2.322;2022-12-18T03:11:14;-2.50;59.70
820;DHT22;392;48.838;2.322;2022-12-18T03:14:04;-2.50;59.90
820;DHT22;392;48.838;2.322;2022-12-18T03:16:34;-2.50;59.90
820;DHT22;392;48.838;2.322;2022-12-18T03:19:08;-2.40;59.70
820;DHT22;392;48.838;2.322;2022-12-18T03:21:40;-2.40;59.60
820;DHT22;392;48.838;2.322;2022-12-18T03:24:11;-2.40;59.20
820;DHT22;392;48.838;2.322;2022-12-18T03:26:42;-2.30;58.60
820;DHT22;392;48.838;2.322;2022-12-18T03:29:19;-2.30;58.00
820;DHT22;392;48.838;2.322;2022-12-18T03:31:53;-2.20;58.10
820;DHT22;392;48.838;2.322;2022-12-18T03:34:25;-2.20;58.00
820;DHT22;392;48.838;2.322;2022-12-18T03:37:01;-2.20;58.50
820;DHT22;392;48.838;2.322;2022-12-18T03:39:32;-2.30;57.50
820;DHT22;392;48.838;2.322;2022-12-18T03:42:05;-2.30;57.50
820;DHT22;392;48.838;2.322;2022-12-18T03:44:44;-2.30;57.50
820;DHT22;392;48.838;2.322;2022-12-18T03:47:24;-2.30;57.90
820;DHT22;392;48.838;2.322;2022-12-18T03:49:58;-2.30;57.60
820;DHT22;392;48.838;2.322;2022-12-18T03:52:36;-2.30;57.90
820;DHT22;392;48.838;2.322;2022-12-18T03:55:07;-2.30;58.00
820;DHT22;392;48.838;2.322;2022-12-18T03:57:35;-2.40;57.90
820;DHT22;392;48.838;2.322;2022-12-18T04:00:08;-2.40;57.90
820;DHT22;392;48.838;2.322;2022-12-18T04:02:52;-2.40;58.10
820;DHT22;392;48.838;2.322;2022-12-18T04:05:30;-2.40;58.10
820;DHT22;392;48.838;2.322;2022-12-18T04:08:01;-2.40;58.20
820;DHT22;392;48.838;2.322;2022-12-18T04:10:32;-2.40;58.60
820;DHT22;392;48.838;2.322;2022-12-18T04:13:00;-2.40;59.00
820;DHT22;392;48.838;2.322;2022-12-18T04:15:30;-2.40;59.20
820;DHT22;392;48.838;2.322;2022-12-18T04:17:58;-2.30;58.60
820;DHT22;392;48.838;2.322;2022-12-18T04:20:35;-2.40;58.20
820;DHT22;392;48.838;2.322;2022-12-18T04:23:03;-2.40;58.30
820;DHT22;392;48.838;2.322;2022-12-18T04:25:30;-2.40;58.60
820;DHT22;392;48.838;2.322;2022-12-18T04:28:06;-2.40;59.10
820;DHT22;392;48.838;2.322;2022-12-18T04:30:37;-2.40;59.00
820;DHT22;392;48.838;2.322;2022-12-18T04:33:08;-2.50;59.20
820;DHT22;392;48.838;2.322;2022-12-18T04:35:37;-2.50;59.60
820;DHT22;392;48.838;2.322;2022-12-18T04:38:05;-2.50;59.90
820;DHT22;392;48.838;2.322;2022-12-18T04:40:34;-2.50;59.80
820;DHT22;392;48.838;2.322;2022-12-18T04:43:04;-2.50;59.90
820;DHT22;392;48.838;2.322;2022-12-18T04:45:32;-2.50;59.90
820;DHT22;392;48.838;2.322;2022-12-18T04:48:02;-2.50;59.80
820;DHT22;392;48.838;2.322;2022-12-18T04:50:30;-2.40;60.00
820;DHT22;392;48.838;2.322;2022-12-18T04:52:57;-2.40;59.90
820;DHT22;392;48.838;2.322;2022-12-18T04:55:25;-2.50;59.60
820;DHT22;392;48.838;2.322;2022-12-18T04:57:53;-2.50;60.00
820;DHT22;392;48.838;2.322;2022-12-18T05:00:20;-2.50;60.20
820;DHT22;392;48.838;2.322;2022-12-18T05:02:48;-2.40;60.40
820;DHT22;392;48.838;2.322;2022-12-18T05:05:16;-2.40;60.80
820;DHT22;392;48.838;2.322;2022-12-18T05:07:44;-2.50;59.60
820;DHT22;392;48.838;2.322;2022-12-18T05:10:11;-2.50;59.80
820;DHT22;392;48.838;2.322;2022-12-18T05:12:38;-2.50;60.30
820;DHT22;392;48.838;2.322;2022-12-18T05:15:24;-2.50;61.10
820;DHT22;392;48.838;2.322;2022-12-18T05:17:53;-2.50;60.50
820;DHT22;392;48.838;2.322;2022-12-18T05:20:21;-2.40;60.70
820;DHT22;392;48.838;2.322;2022-12-18T05:22:49;-2.40;60.40
820;DHT22;392;48.838;2.322;2022-12-18T05:25:17;-2.30;60.20
820;DHT22;392;48.838;2.322;2022-12-18T05:27:44;-2.30;59.90
820;DHT22;392;48.838;2.322;2022-12-18T05:30:13;-2.30;59.40
820;DHT22;392;48.838;2.322;2022-12-18T05:32:40;-2.30;59.80
820;DHT22;392;48.838;2.322;2022-12-18T05:35:09;-2.40;58.40
820;DHT22;392;48.838;2.322;2022-12-18T05:37:38;-2.50;59.10
820;DHT22;392;48.838;2.322;2022-12-18T05:40:07;-2.50;59.50
820;DHT22;392;48.838;2.322;2022-12-18T05:42:35;-2.50;59.70
820;DHT22;392;48.838;2.322;2022-12-18T05:45:03;-2.50;60.50
820;DHT22;392;48.838;2.322;2022-12-18T05:47:32;-2.60;59.90
820;DHT22;392;48.838;2.322;2022-12-18T05:49:59;-2.60;60.20
820;DHT22;392;48.838;2.322;2022-12-18T05:52:26;-2.70;60.20
820;DHT22;392;48.838;2.322;2022-12-18T05:54:55;-2.70;61.30
820;DHT22;392;48.838;2.322;2022-12-18T05:57:22;-2.70;61.00
820;DHT22;392;48.838;2.322;2022-12-18T05:59:50;-2.70;61.40
820;DHT22;392;48.838;2.322;2022-12-18T06:02:17;-2.70;61.20
820;DHT22;392;48.838;2.322;2022-12-18T06:04:46;-2.70;60.80
820;DHT22;392;48.838;2.322;2022-12-18T06:07:14;-2.70;60.90
820;DHT22;392;48.838;2.322;2022-12-18T06:09:41;-2.60;60.90
820;DHT22;392;48.838;2.322;2022-12-18T06:12:10;-2.60;60.70
820;DHT22;392;48.838;2.322;2022-12-18T06:14:37;-2.60;60.10
820;DHT22;392;48.838;2.322;2022-12-18T06:17:05;-2.60;59.80
820;DHT22;392;48.838;2.322;2022-12-18T06:19:32;-2.60;59.90
820;DHT22;392;48.838;2.322;2022-12-18T06:22:00;-2.60;59.80
820;DHT22;392;48.838;2.322;2022-12-18T06:24:27;-2.60;59.80
820;DHT22;392;48.838;2.322;2022-12-18T06:26:55;-2.50;59.60
820;DHT22;392;48.838;2.322;2022-12-18T06:29:24;-2.50;59.30
820;DHT22;392;48.838;2.322;2022-12-18T06:31:51;-2.50;59.30
820;DHT22;392;48.838;2.322;2022-12-18T06:34:19;-2.50;59.00
820;DHT22;392;48.838;2.322;2022-12-18T06:36:46;-2.60;58.30
820;DHT22;392;48.838;2.322;2022-12-18T06:39:13;-2.60;58.60
820;DHT22;392;48.838;2.322;2022-12-18T06:41:40;-2.70;58.90
820;DHT22;392;48.838;2.322;2022-12-18T06:44:08;-2.70;59.20
820;DHT22;392;48.838;2.322;2022-12-18T06:46:36;-2.70;59.20
820;DHT22;392;48.838;2.322;2022-12-18T06:49:04;-2.70;59.40
820;DHT22;392;48.838;2.322;2022-12-18T06:51:32;-2.80;59.50
820;DHT22;392;48.838;2.322;2022-12-18T06:54:00;-2.80;59.90
820;DHT22;392;48.838;2.322;2022-12-18T06:56:27;-2.80;60.00
820;DHT22;392;48.838;2.322;2022-12-18T06:58:54;-2.80;60.10
820;DHT22;392;48.838;2.322;2022-12-18T07:01:22;-2.80;60.00
820;DHT22;392;48.838;2.322;2022-12-18T07:03:53;-2.80;59.80
820;DHT22;392;48.838;2.322;2022-12-18T07:06:23;-2.80;60.70
820;DHT22;392;48.838;2.322;2022-12-18T07:08:53;-2.80;60.20
820;DHT22;392;48.838;2.322;2022-12-18T07:11:21;-2.80;59.80
820;DHT22;392;48.838;2.322;2022-12-18T07:13:48;-2.90;59.90
820;DHT22;392;48.838;2.322;2022-12-18T07:16:17;-2.80;60.60
820;DHT22;392;48.838;2.322;2022-12-18T07:18:45;-2.80;59.90
820;DHT22;392;48.838;2.322;2022-12-18T07:21:16;-2.80;59.70
820;DHT22;392;48.838;2.322;2022-12-18T07:23:44;-2.90;59.70
820;DHT22;392;48.838;2.322;2022-12-18T07:26:14;-2.90;59.80
820;DHT22;392;48.838;2.322;2022-12-18T07:28:43;-2.90;59.50
820;DHT22;392;48.838;2.322;2022-12-18T07:31:12;-2.90;59.60
820;DHT22;392;48.838;2.322;2022-12-18T07:33:40;-2.80;59.60
820;DHT22;392;48.838;2.322;2022-12-18T07:36:09;-2.80;59.60
820;DHT22;392;48.838;2.322;2022-12-18T07:38:39;-2.70;59.60
820;DHT22;392;48.838;2.322;2022-12-18T07:41:08;-2.70;58.90
820;DHT22;392;48.838;2.322;2022-12-18T07:43:37;-2.60;58.90
820;DHT22;392;48.838;2.322;2022-12-18T07:46:06;-2.60;58.60
820;DHT22;392;48.838;2.322;2022-12-18T07:48:35;-2.60;58.00
820;DHT22;392;48.838;2.322;2022-12-18T07:51:04;-2.60;57.70
820;DHT22;392;48.838;2.322;2022-12-18T07:53:33;-2.60;58.40
820;DHT22;392;48.838;2.322;2022-12-18T07:56:05;-2.60;57.00
820;DHT22;392;48.838;2.322;2022-12-18T07:58:35;-2.60;56.50
820;DHT22;392;48.838;2.322;2022-12-18T08:01:05;-2.60;56.70
820;DHT22;392;48.838;2.322;2022-12-18T08:03:33;-2.60;56.70
820;DHT22;392;48.838;2.322;2022-12-18T08:06:01;-2.60;57.20
820;DHT22;392;48.838;2.322;2022-12-18T08:08:29;-2.50;56.60
820;DHT22;392;48.838;2.322;2022-12-18T08:10:57;-2.50;56.40
820;DHT22;392;48.838;2.322;2022-12-18T08:13:26;-2.50;55.60
820;DHT22;392;48.838;2.322;2022-12-18T08:15:57;-2.60;56.50
820;DHT22;392;48.838;2.322;2022-12-18T08:18:25;-2.60;55.90
820;DHT22;392;48.838;2.322;2022-12-18T08:20:52;-2.60;56.00
820;DHT22;392;48.838;2.322;2022-12-18T08:23:20;-2.60;56.40
820;DHT22;392;48.838;2.322;2022-12-18T08:25:48;-2.60;57.10
820;DHT22;392;48.838;2.322;2022-12-18T08:28:17;-2.70;55.70
820;DHT22;392;48.838;2.322;2022-12-18T08:30:45;-2.70;56.20
820;DHT22;392;48.838;2.322;2022-12-18T08:33:13;-2.80;56.50
820;DHT22;392;48.838;2.322;2022-12-18T08:35:40;-2.80;56.80
820;DHT22;392;48.838;2.322;2022-12-18T08:38:08;-2.90;57.10
820;DHT22;392;48.838;2.322;2022-12-18T08:40:35;-2.90;58.10
820;DHT22;392;48.838;2.322;2022-12-18T08:43:03;-2.90;57.50
820;DHT22;392;48.838;2.322;2022-12-18T08:45:49;-2.80;57.70
820;DHT22;392;48.838;2.322;2022-12-18T08:48:16;-2.70;57.60
820;DHT22;392;48.838;2.322;2022-12-18T08:50:43;-2.60;57.50
820;DHT22;392;48.838;2.322;2022-12-18T08:53:11;-2.60;57.10
820;DHT22;392;48.838;2.322;2022-12-18T08:55:38;-2.50;56.50
820;DHT22;392;48.838;2.322;2022-12-18T08:58:06;-2.50;55.90
820;DHT22;392;48.838;2.322;2022-12-18T09:00:33;-2.50;56.10
820;DHT22;392;48.838;2.322;2022-12-18T09:03:02;-2.40;56.10
820;DHT22;392;48.838;2.322;2022-12-18T09:05:30;-2.20;56.50
820;DHT22;392;48.838;2.322;2022-12-18T09:07:57;-2.10;55.50
820;DHT22;392;48.838;2.322;2022-12-18T09:10:24;-2.00;55.40
820;DHT22;392;48.838;2.322;2022-12-18T09:12:52;-1.80;55.00
820;DHT22;392;48.838;2.322;2022-12-18T09:15:19;-1.70;54.00
820;DHT22;392;48.838;2.322;2022-12-18T09:17:47;-1.60;52.90
820;DHT22;392;48.838;2.322;2022-12-18T09:20:17;-1.50;51.70
820;DHT22;392;48.838;2.322;2022-12-18T09:22:45;-1.50;50.70
820;DHT22;392;48.838;2.322;2022-12-18T09:25:12;-1.50;49.80
820;DHT22;392;48.838;2.322;2022-12-18T09:27:39;-1.40;49.50
820;DHT22;392;48.838;2.322;2022-12-18T09:30:08;-1.40;49.50
820;DHT22;392;48.838;2.322;2022-12-18T09:32:36;-1.40;49.50
820;DHT22;392;48.838;2.322;2022-12-18T09:35:04;-1.40;49.50
820;DHT22;392;48.838;2.322;2022-12-18T09:37:33;-1.30;49.60
820;DHT22;392;48.838;2.322;2022-12-18T09:40:01;-1.30;49.10
820;DHT22;392;48.838;2.322;2022-12-18T09:42:28;-1.30;48.50
820;DHT22;392;48.838;2.322;2022-12-18T09:44:56;-1.30;49.00
820;DHT22;392;48.838;2.322;2022-12-18T09:47:28;-1.30;48.60
820;DHT22;392;48.838;2.322;2022-12-18T09:49:59;-1.20;49.20
820;DHT22;392;48.838;2.322;2022-12-18T09:52:33;-1.10;49.00
820;DHT22;392;48.838;2.322;2022-12-18T09:55:05;-1.00;48.50
820;DHT22;392;48.838;2.322;2022-12-18T09:57:45;-1.00;47.90
820;DHT22;392;48.838;2.322;2022-12-18T10:00:20;-1.00;47.90
820;DHT22;392;48.838;2.322;2022-12-18T10:02:49;-1.00;47.70
820;DHT22;392;48.838;2.322;2022-12-18T10:05:24;-0.90;47.70
820;DHT22;392;48.838;2.322;2022-12-18T10:08:05;-0.90;47.50
820;DHT22;392;48.838;2.322;2022-12-18T10:10:39;-0.80;48.00
820;DHT22;392;48.838;2.322;2022-12-18T10:13:15;-0.80;47.40
820;DHT22;392;48.838;2.322;2022-12-18T10:15:58;-0.70;47.40
820;DHT22;392;48.838;2.322;2022-12-18T10:18:41;-0.70;47.00
820;DHT22;392;48.838;2.322;2022-12-18T10:21:18;-0.80;46.70
820;DHT22;392;48.838;2.322;2022-12-18T10:23:57;-0.80;47.60
820;DHT22;392;48.838;2.322;2022-12-18T10:26:32;-0.80;47.90
820;DHT22;392;48.838;2.322;2022-12-18T10:29:00;-0.70;47.50
820;DHT22;392;48.838;2.322;2022-12-18T10:31:28;-0.70;47.20
820;DHT22;392;48.838;2.322;2022-12-18T10:33:56;-0.60;47.60
820;DHT22;392;48.838;2.322;2022-12-18T10:36:24;-0.50;47.70
820;DHT22;392;48.838;2.322;2022-12-18T10:38:52;-0.40;47.60
820;DHT22;392;48.838;2.322;2022-12-18T10:41:24;-0.40;46.70
820;DHT22;392;48.838;2.322;2022-12-18T10:44:14;-0.30;47.30
820;DHT22;392;48.838;2.322;2022-12-18T10:46:44;-0.20;46.60
820;DHT22;392;48.838;2.322;2022-12-18T10:49:21;-0.30;46.10
820;DHT22;392;48.838;2.322;2022-12-18T10:51:51;-0.20;46.30
820;DHT22;392;48.838;2.322;2022-12-18T10:54:34;-0.10;45.90
820;DHT22;392;48.838;2.322;2022-12-18T10:57:15;-0.10;45.30
820;DHT22;392;48.838;2.322;2022-12-18T10:59:53;-0.10;45.50
820;DHT22;392;48.838;2.322;2022-12-18T11:02:33;-0.20;46.00
820;DHT22;392;48.838;2.322;2022-12-18T11:05:02;-0.20;46.50
820;DHT22;392;48.838;2.322;2022-12-18T11:07:48;-0.20;46.50
820;DHT22;392;48.838;2.322;2022-12-18T11:10:19;-0.20;47.50
820;DHT22;392;48.838;2.322;2022-12-18T11:12:47;-0.10;47.30
820;DHT22;392;48.838;2.322;2022-12-18T11:15:17;0.00;47.10
820;DHT22;392;48.838;2.322;2022-12-18T11:17:48;0.10;46.50
820;DHT22;392;48.838;2.322;2022-12-18T11:20:24;0.10;46.10
820;DHT22;392;48.838;2.322;2022-12-18T11:22:59;0.30;46.50
820;DHT22;392;48.838;2.322;2022-12-18T11:25:29;0.40;46.60
820;DHT22;392;48.838;2.322;2022-12-18T11:27:59;0.40;45.70
820;DHT22;392;48.838;2.322;2022-12-18T11:30:30;0.30;45.30
820;DHT22;392;48.838;2.322;2022-12-18T11:33:04;0.30;45.50
820;DHT22;392;48.838;2.322;2022-12-18T11:35:43;0.30;45.20
820;DHT22;392;48.838;2.322;2022-12-18T11:38:23;0.40;45.20
820;DHT22;392;48.838;2.322;2022-12-18T11:40:56;0.30;45.00
820;DHT22;392;48.838;2.322;2022-12-18T11:43:29;0.20;45.70
820;DHT22;392;48.838;2.322;2022-12-18T11:46:02;0.10;46.10
820;DHT22;392;48.838;2.322;2022-12-18T11:48:36;0.10;47.00
820;DHT22;392;48.838;2.322;2022-12-18T11:51:13;0.10;47.40
820;DHT22;392;48.838;2.322;2022-12-18T11:53:45;0.10;47.50
820;DHT22;392;48.838;2.322;2022-12-18T11:56:28;0.10;48.50
820;DHT22;392;48.838;2.322;2022-12-18T11:59:03;0.20;47.80
820;DHT22;392;48.838;2.322;2022-12-18T12:01:44;0.30;47.30
820;DHT22;392;48.838;2.322;2022-12-18T12:07:46;0.40;47.40
820;DHT22;392;48.838;2.322;2022-12-18T12:10:30;0.50;47.40
820;DHT22;392;48.838;2.322;2022-12-18T12:13:18;0.60;46.20
820;DHT22;392;48.838;2.322;2022-12-18T12:16:05;0.70;46.30
820;DHT22;392;48.838;2.322;2022-12-18T12:19:04;0.90;46.60
820;DHT22;392;48.838;2.322;2022-12-18T12:21:40;1.00;45.40
820;DHT22;392;48.838;2.322;2022-12-18T12:24:20;1.10;45.30
820;DHT22;392;48.838;2.322;2022-12-18T12:27:00;1.20;45.10
820;DHT22;392;48.838;2.322;2022-12-18T12:29:43;1.30;44.40
820;DHT22;392;48.838;2.322;2022-12-18T12:32:25;1.30;43.70
820;DHT22;392;48.838;2.322;2022-12-18T12:35:12;1.40;44.10
820;DHT22;392;48.838;2.322;2022-12-18T12:37:54;1.50;44.20
820;DHT22;392;48.838;2.322;2022-12-18T12:40:29;1.60;43.50
820;DHT22;392;48.838;2.322;2022-12-18T12:43:01;1.70;43.80
820;DHT22;392;48.838;2.322;2022-12-18T12:45:44;1.70;42.70
820;DHT22;392;48.838;2.322;2022-12-18T12:48:20;1.80;42.70
820;DHT22;392;48.838;2.322;2022-12-18T12:50:55;1.80;42.70
820;DHT22;392;48.838;2.322;2022-12-18T12:53:27;1.80;42.70
820;DHT22;392;48.838;2.322;2022-12-18T12:55:58;1.90;42.80
820;DHT22;392;48.838;2.322;2022-12-18T12:58:31;1.80;42.10
820;DHT22;392;48.838;2.322;2022-12-18T13:01:11;1.80;42.70
820;DHT22;392;48.838;2.322;2022-12-18T13:03:52;1.80;42.70
820;DHT22;392;48.838;2.322;2022-12-18T13:06:35;1.90;42.80
820;DHT22;392;48.838;2.322;2022-12-18T13:09:07;2.00;42.90
820;DHT22;392;48.838;2.322;2022-12-18T13:11:36;2.10;42.80
820;DHT22;392;48.838;2.322;2022-12-18T13:14:33;2.10;42.10
820;DHT22;392;48.838;2.322;2022-12-18T13:17:29;2.20;42.50
820;DHT22;392;48.838;2.322;2022-12-18T13:20:07;2.30;42.70
820;DHT22;392;48.838;2.322;2022-12-18T13:22:42;2.20;41.80
820;DHT22;392;48.838;2.322;2022-12-18T13:25:28;2.10;41.80
820;DHT22;392;48.838;2.322;2022-12-18T13:28:06;2.00;42.10
820;DHT22;392;48.838;2.322;2022-12-18T13:30:53;2.00;42.80
820;DHT22;392;48.838;2.322;2022-12-18T13:33:47;2.00;42.90
820;DHT22;392;48.838;2.322;2022-12-18T13:36:28;2.10;43.00
820;DHT22;392;48.838;2.322;2022-12-18T13:39:32;2.10;43.00
820;DHT22;392;48.838;2.322;2022-12-18T13:45:43;2.00;43.10
820;DHT22;392;48.838;2.322;2022-12-18T13:48:23;2.00;43.60
820;DHT22;392;48.838;2.322;2022-12-18T13:50:57;2.00;43.90
820;DHT22;392;48.838;2.322;2022-12-18T13:53:29;1.90;44.20
820;DHT22;392;48.838;2.322;2022-12-18T13:55:59;1.90;44.60
820;DHT22;392;48.838;2.322;2022-12-18T13:58:27;2.00;44.80
820;DHT22;392;48.838;2.322;2022-12-18T14:00:55;2.10;44.70
820;DHT22;392;48.838;2.322;2022-12-18T14:03:27;2.10;44.60
820;DHT22;392;48.838;2.322;2022-12-18T14:06:03;2.10;44.40
820;DHT22;392;48.838;2.322;2022-12-18T14:08:37;2.10;44.70
820;DHT22;392;48.838;2.322;2022-12-18T14:11:07;2.10;44.80
820;DHT22;392;48.838;2.322;2022-12-18T14:13:38;2.10;45.10
820;DHT22;392;48.838;2.322;2022-12-18T14:16:14;2.20;45.40
820;DHT22;392;48.838;2.322;2022-12-18T14:18:46;2.20;45.10
820;DHT22;392;48.838;2.322;2022-12-18T14:21:21;2.30;45.30
820;DHT22;392;48.838;2.322;2022-12-18T14:24:04;2.40;45.30
820;DHT22;392;48.838;2.322;2022-12-18T14:26:32;2.30;45.10
820;DHT22;392;48.838;2.322;2022-12-18T14:29:17;2.30;45.20
820;DHT22;392;48.838;2.322;2022-12-18T14:31:50;2.30;45.50
820;DHT22;392;48.838;2.322;2022-12-18T14:34:31;2.30;45.80
820;DHT22;392;48.838;2.322;2022-12-18T14:37:00;2.40;46.00
820;DHT22;392;48.838;2.322;2022-12-18T14:39:28;2.40;45.80
820;DHT22;392;48.838;2.322;2022-12-18T14:41:55;2.40;45.90
820;DHT22;392;48.838;2.322;2022-12-18T14:44:23;2.40;46.10
820;DHT22;392;48.838;2.322;2022-12-18T14:46:50;2.40;46.20
820;DHT22;392;48.838;2.322;2022-12-18T14:49:23;2.50;46.40
820;DHT22;392;48.838;2.322;2022-12-18T14:51:55;2.40;46.30
820;DHT22;392;48.838;2.322;2022-12-18T14:54:25;2.50;46.50
820;DHT22;392;48.838;2.322;2022-12-18T14:56:56;2.50;46.50
820;DHT22;392;48.838;2.322;2022-12-18T14:59:28;2.50;47.30
820;DHT22;392;48.838;2.322;2022-12-18T15:02:03;2.60;46.70
820;DHT22;392;48.838;2.322;2022-12-18T15:04:37;2.60;46.70
820;DHT22;392;48.838;2.322;2022-12-18T15:07:11;2.70;46.50
820;DHT22;392;48.838;2.322;2022-12-18T15:09:42;2.70;46.70
820;DHT22;392;48.838;2.322;2022-12-18T15:12:24;2.70;46.60
820;DHT22;392;48.838;2.322;2022-12-18T15:14:53;2.70;46.80
820;DHT22;392;48.838;2.322;2022-12-18T15:17:22;2.70;46.70
820;DHT22;392;48.838;2.322;2022-12-18T15:19:53;2.70;46.70
820;DHT22;392;48.838;2.322;2022-12-18T15:22:27;2.80;46.80
820;DHT22;392;48.838;2.322;2022-12-18T15:24:58;2.80;46.70
820;DHT22;392;48.838;2.322;2022-12-18T15:27:29;2.90;46.70
820;DHT22;392;48.838;2.322;2022-12-18T15:30:19;2.90;46.50
820;DHT22;392;48.838;2.322;2022-12-18T15:32:51;2.90;46.30
820;DHT22;392;48.838;2.322;2022-12-18T15:35:21;2.90;46.50
820;DHT22;392;48.838;2.322;2022-12-18T15:37:50;2.90;47.20
820;DHT22;392;48.838;2.322;2022-12-18T15:40:21;2.90;46.40
820;DHT22;392;48.838;2.322;2022-12-18T15:42:53;3.00;46.40
820;DHT22;392;48.838;2.322;2022-12-18T15:45:38;3.00;46.40
820;DHT22;392;48.838;2.322;2022-12-18T15:48:17;3.00;46.30
820;DHT22;392;48.838;2.322;2022-12-18T15:50:47;2.90;46.60
820;DHT22;392;48.838;2.322;2022-12-18T15:53:15;2.90;46.80
820;DHT22;392;48.838;2.322;2022-12-18T15:55:44;2.90;47.10
820;DHT22;392;48.838;2.322;2022-12-18T15:58:30;2.90;47.50
820;DHT22;392;48.838;2.322;2022-12-18T16:00:59;2.90;47.80
820;DHT22;392;48.838;2.322;2022-12-18T16:03:26;3.00;48.00
820;DHT22;392;48.838;2.322;2022-12-18T16:05:54;3.00;47.90
820;DHT22;392;48.838;2.322;2022-12-18T16:08:21;3.00;48.10
820;DHT22;392;48.838;2.322;2022-12-18T16:10:50;3.00;48.10
820;DHT22;392;48.838;2.322;2022-12-18T16:13:19;3.00;48.30
820;DHT22;392;48.838;2.322;2022-12-18T16:15:47;3.10;48.70
820;DHT22;392;48.838;2.322;2022-12-18T16:18:15;3.10;49.00
820;DHT22;392;48.838;2.322;2022-12-18T16:20:42;3.10;49.30
820;DHT22;392;48.838;2.322;2022-12-18T16:23:10;3.10;49.80
820;DHT22;392;48.838;2.322;2022-12-18T16:25:37;3.10;50.00
820;DHT22;392;48.838;2.322;2022-12-18T16:28:06;3.10;50.60
820;DHT22;392;48.838;2.322;2022-12-18T16:30:33;3.10;51.20
820;DHT22;392;48.838;2.322;2022-12-18T16:33:01;3.10;51.80
820;DHT22;392;48.838;2.322;2022-12-18T16:35:28;3.10;52.20
820;DHT22;392;48.838;2.322;2022-12-18T16:37:55;3.10;52.90
820;DHT22;392;48.838;2.322;2022-12-18T16:40:23;3.10;54.00
820;DHT22;392;48.838;2.322;2022-12-18T16:42:50;3.10;53.40
820;DHT22;392;48.838;2.322;2022-12-18T16:45:19;3.20;54.20
820;DHT22;392;48.838;2.322;2022-12-18T16:47:46;3.20;54.60
820;DHT22;392;48.838;2.322;2022-12-18T16:50:15;3.10;54.70
820;DHT22;392;48.838;2.322;2022-12-18T16:52:42;3.10;55.10
820;DHT22;392;48.838;2.322;2022-12-18T16:55:10;3.10;55.50
820;DHT22;392;48.838;2.322;2022-12-18T16:57:38;3.10;55.90
820;DHT22;392;48.838;2.322;2022-12-18T17:00:09;3.10;56.30
820;DHT22;392;48.838;2.322;2022-12-18T17:02:39;3.10;56.70
820;DHT22;392;48.838;2.322;2022-12-18T17:05:07;3.10;57.10
820;DHT22;392;48.838;2.322;2022-12-18T17:07:34;3.20;57.30
820;DHT22;392;48.838;2.322;2022-12-18T17:10:02;3.20;57.30
820;DHT22;392;48.838;2.322;2022-12-18T17:12:30;3.20;57.50
820;DHT22;392;48.838;2.322;2022-12-18T17:14:57;3.20;57.60
820;DHT22;392;48.838;2.322;2022-12-18T17:17:25;3.30;57.80